| time (UTC) | temp F | wind direction | speed MPH | gust MPH | rain 1hr in | rain 24hr in | rain mn in | humidity % | barometer mb |
| 20260510230050 | 72 | 331 | 1.0 | 6.0 | 0.00 | 0.07 | 0.03 | 31 | 1022.4 |
| 20260510224544 | 72 | 112 | 1.0 | 4.0 | 0.00 | 0.08 | 0.03 | 30 | 1022.4 |
| 20260510223047 | 72 | 8 | 0.0 | 5.0 | 0.00 | 0.08 | 0.03 | 30 | 1022.4 |
| 20260510221545 | 72 | 269 | 1.0 | 3.0 | 0.00 | 0.08 | 0.03 | 31 | 1022.4 |
| 20260510220045 | 71 | 307 | 1.0 | 4.0 | 0.00 | 0.08 | 0.03 | 31 | 1022.7 |
| 20260510214543 | 71 | 355 | 2.0 | 7.0 | 0.00 | 0.08 | 0.03 | 30 | 1022.7 |
| 20260510213049 | 71 | 11 | 2.0 | 6.0 | 0.00 | 0.08 | 0.03 | 31 | 1022.8 |
| 20260510211541 | 70 | 5 | 2.0 | 5.0 | 0.00 | 0.08 | 0.03 | 31 | 1023.0 |
| 20260510210047 | 69 | 116 | 1.0 | 6.0 | 0.00 | 0.08 | 0.03 | 32 | 1023.2 |
| 20260510204541 | 69 | 82 | 3.0 | 7.0 | 0.00 | 0.08 | 0.03 | 34 | 1023.4 |
| 20260510203045 | 69 | 349 | 2.0 | 7.0 | 0.00 | 0.08 | 0.03 | 32 | 1023.4 |
| 20260510201544 | 69 | 79 | 3.0 | 8.0 | 0.00 | 0.08 | 0.03 | 33 | 1023.4 |
| 20260510200044 | 69 | 349 | 2.0 | 9.0 | 0.00 | 0.08 | 0.03 | 31 | 1023.5 |
| 20260510194543 | 69 | 58 | 3.0 | 6.0 | 0.00 | 0.08 | 0.03 | 31 | 1023.6 |
| 20260510193051 | 68 | 330 | 1.0 | 5.0 | 0.00 | 0.08 | 0.03 | 35 | 1023.6 |
| 20260510191545 | 67 | 34 | 2.0 | 5.0 | 0.00 | 0.08 | 0.03 | 31 | 1023.6 |
| 20260510190052 | 67 | 86 | 1.0 | 6.0 | 0.00 | 0.08 | 0.03 | 32 | 1023.7 |
| 20260510184609 | 65 | 57 | 1.0 | 6.0 | 0.00 | 0.08 | 0.03 | 34 | 1023.8 |
| 20260510183043 | 65 | 86 | 2.0 | 7.0 | 0.00 | 0.08 | 0.03 | 32 | 1023.8 |
| 20260510181553 | 66 | 29 | 2.0 | 6.0 | 0.00 | 0.08 | 0.03 | 34 | 1024.1 |
| 20260510180058 | 67 | 49 | 2.0 | 6.0 | 0.00 | 0.08 | 0.03 | 33 | 1024.4 |
| 20260510174544 | 66 | 34 | 2.0 | 5.0 | 0.00 | 0.08 | 0.03 | 35 | 1024.4 |
| 20260510173042 | 65 | 304 | 1.0 | 4.0 | 0.00 | 0.08 | 0.03 | 37 | 1024.6 |
| 20260510171556 | 64 | 52 | 1.0 | 2.0 | 0.00 | 0.08 | 0.03 | 40 | 1024.6 |
| 20260510170045 | 62 | 40 | 2.0 | 5.0 | 0.00 | 0.08 | 0.03 | 38 | 1024.6 |
| 20260510164548 | 62 | 83 | 3.0 | 8.0 | 0.00 | 0.08 | 0.03 | 43 | 1024.6 |
| 20260510163044 | 60 | 54 | 1.0 | 5.0 | 0.00 | 0.08 | 0.03 | 47 | 1024.4 |
| 20260510161543 | 61 | 30 | 2.0 | 5.0 | 0.00 | 0.08 | 0.03 | 45 | 1024.3 |
| 20260510160048 | 60 | 58 | 1.0 | 4.0 | 0.00 | 0.08 | 0.03 | 45 | 1024.2 |
| 20260510154558 | 57 | 96 | 0.0 | 3.0 | 0.00 | 0.08 | 0.03 | 51 | 1024.3 |
| 20260510153047 | 56 | 44 | 1.0 | 2.0 | 0.00 | 0.08 | 0.03 | 49 | 1024.1 |
| 20260510151547 | 56 | 114 | 0.0 | 4.0 | 0.00 | 0.08 | 0.03 | 50 | 1024.1 |
| 20260510150106 | 55 | 42 | 1.0 | 4.0 | 0.00 | 0.08 | 0.03 | 53 | 1023.7 |
| 20260510144606 | 55 | 91 | 1.0 | 4.0 | 0.00 | 0.08 | 0.03 | 53 | 1023.5 |
| 20260510143042 | 54 | 91 | 1.0 | 4.0 | 0.00 | 0.08 | 0.03 | 54 | 1023.5 |
| 20260510141547 | 54 | 68 | 0.0 | 3.0 | 0.00 | 0.08 | 0.03 | 56 | 1023.3 |
| 20260510140042 | 53 | 44 | 0.0 | 3.0 | 0.00 | 0.08 | 0.03 | 61 | 1022.9 |
| 20260510134549 | 52 | 23 | 0.0 | 3.0 | 0.00 | 0.08 | 0.03 | 62 | 1022.9 |
| 20260510133044 | 52 | 3 | 1.0 | 4.0 | 0.00 | 0.08 | 0.03 | 61 | 1022.7 |
| 20260510131543 | 52 | 316 | 0.0 | 2.0 | 0.00 | 0.08 | 0.03 | 60 | 1022.7 |
| 20260510130042 | 52 | 91 | 1.0 | 4.0 | 0.00 | 0.08 | 0.03 | 59 | 1022.5 |
| 20260510124548 | 51 | 8 | 1.0 | 4.0 | 0.00 | 0.08 | 0.03 | 63 | 1022.0 |
| 20260510123048 | 50 | 6 | 1.0 | 4.0 | 0.00 | 0.08 | 0.03 | 67 | 1021.6 |
| 20260510121546 | 49 | 29 | 1.0 | 3.0 | 0.00 | 0.08 | 0.03 | 68 | 1021.5 |
| 20260510120043 | 49 | 8 | 0.0 | 3.0 | 0.00 | 0.08 | 0.03 | 68 | 1021.1 |
| 20260510114541 | 50 | 317 | 1.0 | 4.0 | 0.00 | 0.08 | 0.03 | 65 | 1021.0 |
| 20260510113040 | 50 | 45 | 1.0 | 5.0 | 0.00 | 0.08 | 0.03 | 64 | 1020.5 |
| 20260510111547 | 50 | 359 | 1.0 | 3.0 | 0.00 | 0.08 | 0.03 | 66 | 1020.3 |
| 20260510110044 | 50 | 33 | 1.0 | 3.0 | 0.00 | 0.08 | 0.03 | 67 | 1020.3 |
| 20260510104555 | 50 | 313 | 1.0 | 5.0 | 0.00 | 0.08 | 0.03 | 68 | 1020.0 |
| 20260510103043 | 50 | 52 | 1.0 | 6.0 | 0.00 | 0.08 | 0.03 | 69 | 1020.0 |
| 20260510101550 | 51 | 15 | 2.0 | 5.0 | 0.00 | 0.08 | 0.03 | 69 | 1019.6 |
| 20260510100054 | 51 | 335 | 2.0 | 4.0 | 0.00 | 0.08 | 0.03 | 70 | 1019.4 |
| 20260510094553 | 52 | 8 | 2.0 | 6.0 | 0.00 | 0.08 | 0.03 | 70 | 1018.7 |
| 20260510093049 | 52 | 58 | 1.0 | 6.0 | 0.00 | 0.08 | 0.03 | 71 | 1018.4 |
| 20260510091543 | 52 | 30 | 2.0 | 8.0 | 0.03 | 0.08 | 0.03 | 72 | 1018.0 |
| 20260510090052 | 52 | 74 | 1.0 | 6.0 | 0.03 | 0.08 | 0.03 | 74 | 1018.2 |
| 20260510084557 | 52 | 18 | 3.0 | 9.0 | 0.03 | 0.08 | 0.03 | 73 | 1018.7 |
| 20260510083046 | 51 | 70 | 2.0 | 4.0 | 0.03 | 0.08 | 0.03 | 78 | 1018.3 |
| 20260510081604 | 53 | 2 | 3.0 | 8.0 | 0.00 | 0.05 | 0.00 | 70 | 1019.0 |
| 20260510080046 | 55 | 345 | 2.0 | 9.0 | 0.00 | 0.05 | 0.00 | 64 | 1019.3 |
| 20260510074544 | 55 | 20 | 4.0 | 12.0 | 0.00 | 0.05 | 0.00 | 62 | 1019.1 |
| 20260510073049 | 57 | 25 | 4.0 | 10.0 | 0.00 | 0.05 | 0.00 | 61 | 1019.2 |
| 20260510071542 | 58 | 353 | 3.0 | 8.0 | 0.00 | 0.05 | 0.00 | 56 | 1019.2 |
| 20260510070039 | 58 | 334 | 3.0 | 9.0 | 0.00 | 0.05 | 0.00 | 58 | 1018.7 |
| 20260510064548 | 58 | 43 | 3.0 | 8.0 | 0.00 | 0.05 | 0.00 | 59 | 1018.0 |
| 20260510063046 | 59 | 323 | 4.0 | 10.0 | 0.00 | 0.05 | 0.00 | 58 | 1017.6 |
| 20260510061554 | 59 | 11 | 3.0 | 10.0 | 0.00 | 0.05 | 0.00 | 59 | 1017.7 |
| 20260510060046 | 59 | 324 | 2.0 | 7.0 | 0.00 | 0.05 | 0.00 | 60 | 1017.5 |
| 20260510054541 | 59 | 23 | 2.0 | 10.0 | 0.00 | 0.05 | 0.00 | 61 | 1017.0 |
| 20260510053055 | 59 | 352 | 3.0 | 9.0 | 0.00 | 0.05 | 0.00 | 62 | 1016.6 |
| 20260510051545 | 59 | 30 | 4.0 | 11.0 | 0.00 | 0.05 | 0.00 | 61 | 1015.9 |
| 20260510050044 | 59 | 20 | 3.0 | 8.0 | 0.00 | 0.05 | 0.00 | 61 | 1015.9 |
| 20260510044548 | 59 | 59 | 3.0 | 10.0 | 0.00 | 0.05 | 0.05 | 61 | 1015.7 |
| 20260510043044 | 59 | 15 | 2.0 | 8.0 | 0.00 | 0.05 | 0.05 | 61 | 1015.4 |
| 20260510041541 | 59 | 8 | 3.0 | 8.0 | 0.00 | 0.05 | 0.05 | 62 | 1014.9 |
| 20260510034555 | 60 | 34 | 3.0 | 8.0 | 0.00 | 0.05 | 0.05 | 61 | 1014.4 |
| 20260510033043 | 61 | 347 | 3.0 | 8.0 | 0.00 | 0.05 | 0.05 | 59 | 1014.2 |
| 20260510031557 | 61 | 10 | 3.0 | 8.0 | 0.00 | 0.05 | 0.05 | 58 | 1014.1 |
| 20260510030051 | 62 | 39 | 4.0 | 8.0 | 0.00 | 0.05 | 0.05 | 57 | 1013.6 |
| 20260510024550 | 62 | 20 | 2.0 | 8.0 | 0.00 | 0.05 | 0.05 | 57 | 1012.9 |
| 20260510023047 | 62 | 94 | 3.0 | 9.0 | 0.00 | 0.05 | 0.05 | 57 | 1012.4 |
| 20260510021544 | 62 | 346 | 2.0 | 6.0 | 0.00 | 0.05 | 0.05 | 57 | 1012.3 |
| 20260510020053 | 63 | 65 | 1.0 | 8.0 | 0.00 | 0.05 | 0.05 | 56 | 1011.7 |
| 20260510014557 | 64 | 79 | 3.0 | 8.0 | 0.00 | 0.05 | 0.05 | 55 | 1011.5 |
| 20260510013104 | 64 | 60 | 4.0 | 10.0 | 0.00 | 0.05 | 0.05 | 55 | 1011.3 |
| 20260510011551 | 65 | 49 | 3.0 | 10.0 | 0.00 | 0.05 | 0.05 | 61 | 1011.0 |
| 20260510010045 | 65 | 15 | 2.0 | 7.0 | 0.00 | 0.05 | 0.05 | 61 | 1010.8 |
| 20260510004546 | 66 | 55 | 4.0 | 7.0 | 0.00 | 0.05 | 0.05 | 61 | 1010.2 |
| 20260510003048 | 66 | 94 | 2.0 | 8.0 | 0.00 | 0.05 | 0.05 | 61 | 1010.2 |
| 20260510001542 | 67 | 140 | 3.0 | 11.0 | 0.04 | 0.05 | 0.05 | 58 | 1009.8 |
| 20260510000041 | 69 | 14 | 6.0 | 15.0 | 0.04 | 0.05 | 0.05 | 55 | 1009.6 |
| 20260509234541 | 69 | 100 | 4.0 | 13.0 | 0.05 | 0.05 | 0.05 | 57 | 1009.4 |
| 20260509233037 | 68 | 77 | 4.0 | 10.0 | 0.05 | 0.05 | 0.05 | 62 | 1009.0 |
| 20260509231553 | 71 | 4 | 4.0 | 9.0 | 0.01 | 0.01 | 0.01 | 49 | 1009.2 |